Decoded Metar for K2C8 ( in ) (IATA:) | Meteo·Mobile Aviation Weather
aviador You're here:

K2C8 Decoded Metar

in
Report Time2019-09-17 00:55:00
UTC Time2019-09-17 00:54:42
Flight Rules vfr VFR
Wind150° at 07 kt
Visibility9999 m
Phenomena:N/A
Clouds:N/A
Expected CloudBase > 2,000 ft AGL from Temp-Dew spread
CeilingNone
Temp27°C
Dew Point22°C (74% RH)
Heat Index29.2°C
QNH1005 hPa
Raw Report
K2C8 170055Z AUTO 15007KT 10SM CLR 27/22 A2969 RMK AO2=

Extra information for K2C8:More info

Social comments